Time;durP1;ratioP1;P1;durP2;ratioP2;P2;SDS_P1;SDS_P2;PMS_P1;PMS_P2;Temp;Humidity;BMP_temperature;BMP_pressure;BME280_temperature;BME280_humidity;BME280_pressure;Samples;Min_cycle;Max_cycle;Signal;HPM_P1;HPM_P2
2023/08/22 00:00:51;;;;;;;3.63;2.80;;;;;;;;;;5099497;28;21022;-77
2023/08/22 00:03:17;;;;;;;4.10;2.97;;;;;;;;;;5102778;28;20494;-77
2023/08/22 00:05:44;;;;;;;4.13;2.77;;;;;;;;;;5099979;28;20483;-76
2023/08/22 00:08:10;;;;;;;9.70;3.10;;;;;;;;;;5098611;28;20574;-76
2023/08/22 00:10:36;;;;;;;6.60;3.10;;;;;;;;;;5099903;28;20485;-73
2023/08/22 00:13:03;;;;;;;6.00;2.87;;;;;;;;;;5098409;28;21002;-73
2023/08/22 00:15:31;;;;;;;6.53;3.40;;;;;;;;;;5098989;28;20441;-74
2023/08/22 00:17:58;;;;;;;5.23;3.20;;;;;;;;;;5098619;28;20455;-74
2023/08/22 00:20:24;;;;;;;5.63;2.73;;;;;;;;;;5099860;28;20458;-74
2023/08/22 00:22:51;;;;;;;3.77;3.33;;;;;;;;;;5099256;28;20509;-75
2023/08/22 00:25:17;;;;;;;5.50;3.30;;;;;;;;;;5098805;28;20534;-74
2023/08/22 00:27:43;;;;;;;4.37;3.50;;;;;;;;;;5098927;28;20570;-76
2023/08/22 00:30:10;;;;;;;4.43;3.77;;;;;;;;;;5099109;28;21010;-75
2023/08/22 00:32:38;;;;;;;8.30;3.53;;;;;;;;;;5098259;28;20569;-76
2023/08/22 00:35:04;;;;;;;4.87;3.40;;;;;;;;;;5099003;28;20446;-77
2023/08/22 00:37:31;;;;;;;5.37;3.87;;;;;;;;;;5106076;28;20484;-77
2023/08/22 00:39:57;;;;;;;6.93;3.57;;;;;;;;;;5094751;28;20466;-77
2023/08/22 00:42:23;;;;;;;5.70;3.50;;;;;;;;;;5102557;28;20909;-77
2023/08/22 00:44:50;;;;;;;8.57;3.57;;;;;;;;;;5103070;28;20507;-77
2023/08/22 00:47:17;;;;;;;6.80;3.87;;;;;;;;;;5103083;28;20527;-73
2023/08/22 00:49:44;;;;;;;5.43;3.50;;;;;;;;;;5102763;28;20455;-77
2023/08/22 00:52:11;;;;;;;7.13;3.30;;;;;;;;;;5102304;28;20515;-74
2023/08/22 00:54:37;;;;;;;7.57;2.90;;;;;;;;;;5106414;28;20482;-77
2023/08/22 00:57:04;;;;;;;3.97;3.10;;;;;;;;;;5102694;28;20475;-75
2023/08/22 00:59:30;;;;;;;4.50;3.17;;;;;;;;;;5102584;28;20465;-77
2023/08/22 01:01:57;;;;;;;4.03;2.97;;;;;;;;;;5102176;28;20493;-77
2023/08/22 01:04:23;;;;;;;3.43;3.13;;;;;;;;;;5102943;28;20570;-75
2023/08/22 01:06:53;;;;;;;6.50;3.20;;;;;;;;;;5102319;28;20474;-76
2023/08/22 01:09:24;;;;;;;4.10;2.90;;;;;;;;;;5102135;28;20549;-76
2023/08/22 01:11:50;;;;;;;5.07;3.27;;;;;;;;;;5101920;28;20435;-77
2023/08/22 01:14:20;;;;;;;7.80;3.43;;;;;;;;;;5104547;28;20643;-77
2023/08/22 01:16:48;;;;;;;4.20;3.33;;;;;;;;;;5101510;28;20478;-74
2023/08/22 01:19:18;;;;;;;7.67;3.30;;;;;;;;;;5102075;28;20459;-75
2023/08/22 01:21:48;;;;;;;3.60;2.80;;;;;;;;;;5102440;28;20459;-74
2023/08/22 01:24:15;;;;;;;8.10;3.80;;;;;;;;;;5106624;28;20542;-73
2023/08/22 01:26:41;;;;;;;4.57;3.13;;;;;;;;;;5101877;28;20542;-74
2023/08/22 01:29:10;;;;;;;4.10;3.00;;;;;;;;;;5101322;28;21080;-74
2023/08/22 01:31:39;;;;;;;3.40;3.07;;;;;;;;;;5100699;28;20455;-74
2023/08/22 01:34:09;;;;;;;5.50;3.07;;;;;;;;;;5101797;28;20493;-76
2023/08/22 01:36:37;;;;;;;5.17;2.97;;;;;;;;;;5099817;28;20929;-76
2023/08/22 01:39:07;;;;;;;6.23;3.20;;;;;;;;;;5100756;28;20542;-70
2023/08/22 01:41:34;;;;;;;5.40;2.90;;;;;;;;;;5101548;28;20531;-76
2023/08/22 01:44:01;;;;;;;5.00;3.10;;;;;;;;;;5100861;28;20557;-74
2023/08/22 01:46:27;;;;;;;5.50;3.40;;;;;;;;;;5094880;28;20483;-74
2023/08/22 01:48:54;;;;;;;6.10;3.00;;;;;;;;;;5101206;28;20490;-77
2023/08/22 01:51:20;;;;;;;3.67;2.80;;;;;;;;;;5101485;28;20450;-78
2023/08/22 01:53:47;;;;;;;8.20;3.53;;;;;;;;;;5100849;28;20483;-77
2023/08/22 01:56:14;;;;;;;3.97;3.17;;;;;;;;;;5101541;28;20534;-74
2023/08/22 01:58:41;;;;;;;4.30;3.27;;;;;;;;;;5101581;28;20494;-77
2023/08/22 02:01:11;;;;;;;8.60;3.27;;;;;;;;;;5106891;28;20483;-77
2023/08/22 02:03:38;;;;;;;4.90;3.00;;;;;;;;;;5100589;28;20483;-77
2023/08/22 02:06:04;;;;;;;6.20;3.00;;;;;;;;;;5100372;28;20469;-75
2023/08/22 02:08:31;;;;;;;3.63;2.57;;;;;;;;;;5100171;28;20490;-78
2023/08/22 02:10:57;;;;;;;4.50;2.90;;;;;;;;;;5100457;28;20467;-78
2023/08/22 02:13:25;;;;;;;5.00;3.90;;;;;;;;;;5099998;28;20548;-74
2023/08/22 02:15:52;;;;;;;7.00;3.53;;;;;;;;;;5099730;28;21014;-74
2023/08/22 02:18:18;;;;;;;4.77;3.30;;;;;;;;;;5099519;28;20487;-78
2023/08/22 02:20:45;;;;;;;6.00;3.53;;;;;;;;;;5094238;28;20455;-78
2023/08/22 02:23:11;;;;;;;11.60;3.90;;;;;;;;;;5100131;28;20486;-78
2023/08/22 02:25:38;;;;;;;4.50;3.00;;;;;;;;;;5100668;28;20486;-78
2023/08/22 02:28:05;;;;;;;4.83;3.40;;;;;;;;;;5103361;28;20526;-75
2023/08/22 02:30:32;;;;;;;3.77;2.80;;;;;;;;;;5104859;28;20530;-75
2023/08/22 02:32:59;;;;;;;6.30;3.10;;;;;;;;;;5101860;28;20677;-75
2023/08/22 02:35:25;;;;;;;5.93;3.50;;;;;;;;;;5101190;28;20493;-75
2023/08/22 02:37:52;;;;;;;4.20;3.10;;;;;;;;;;5100789;28;20459;-78
2023/08/22 02:40:18;;;;;;;4.53;3.43;;;;;;;;;;5100445;28;20435;-78
2023/08/22 02:42:45;;;;;;;4.63;2.93;;;;;;;;;;5100998;28;20519;-78
2023/08/22 02:45:11;;;;;;;4.83;3.10;;;;;;;;;;5100031;28;20493;-79
2023/08/22 02:47:39;;;;;;;3.90;2.80;;;;;;;;;;5099528;28;20554;-78
2023/08/22 02:50:06;;;;;;;5.43;3.07;;;;;;;;;;5100234;28;20482;-78
2023/08/22 02:52:32;;;;;;;5.00;3.20;;;;;;;;;;5099852;28;20479;-75
2023/08/22 02:54:59;;;;;;;3.43;3.10;;;;;;;;;;5109092;28;20553;-75
2023/08/22 02:57:26;;;;;;;7.53;3.00;;;;;;;;;;5101012;28;20541;-74
2023/08/22 02:59:52;;;;;;;3.30;3.00;;;;;;;;;;5100122;28;20543;-76
2023/08/22 03:02:18;;;;;;;3.73;2.97;;;;;;;;;;5098681;28;20451;-76
2023/08/22 03:04:46;;;;;;;4.67;3.07;;;;;;;;;;5100232;28;21083;-78
2023/08/22 03:07:12;;;;;;;5.03;4.00;;;;;;;;;;5098287;28;20477;-76
2023/08/22 03:09:39;;;;;;;2.93;2.63;;;;;;;;;;5100384;28;20486;-78
2023/08/22 03:12:06;;;;;;;5.73;3.10;;;;;;;;;;5099805;28;20471;-77
2023/08/22 03:14:32;;;;;;;7.60;3.40;;;;;;;;;;5101665;28;20466;-78
2023/08/22 03:16:59;;;;;;;5.43;3.20;;;;;;;;;;5099278;28;20463;-77
2023/08/22 03:19:25;;;;;;;6.20;3.23;;;;;;;;;;5099116;28;20498;-77
2023/08/22 03:21:53;;;;;;;3.80;2.83;;;;;;;;;;5099441;28;20474;-77
2023/08/22 03:24:19;;;;;;;3.63;2.93;;;;;;;;;;5099646;28;20487;-79
2023/08/22 03:26:46;;;;;;;3.87;2.73;;;;;;;;;;5099735;28;20443;-77
2023/08/22 03:29:12;;;;;;;6.73;2.97;;;;;;;;;;5099188;28;20574;-80
2023/08/22 03:31:39;;;;;;;5.63;3.43;;;;;;;;;;5098827;28;20562;-79
2023/08/22 03:34:05;;;;;;;3.90;2.90;;;;;;;;;;5099596;28;20621;-77
2023/08/22 03:36:32;;;;;;;7.33;3.50;;;;;;;;;;5099417;28;20479;-76
2023/08/22 03:39:00;;;;;;;6.20;3.47;;;;;;;;;;5099024;28;20467;-79
2023/08/22 03:41:26;;;;;;;4.20;3.20;;;;;;;;;;5099819;28;20481;-78
2023/08/22 03:43:53;;;;;;;6.07;3.30;;;;;;;;;;5098584;28;20546;-75
2023/08/22 03:46:19;;;;;;;7.40;3.30;;;;;;;;;;5101094;28;20520;-79
2023/08/22 03:48:45;;;;;;;6.70;3.43;;;;;;;;;;5098943;28;20542;-79
2023/08/22 03:51:12;;;;;;;7.07;3.67;;;;;;;;;;5101351;28;20471;-77
2023/08/22 03:53:38;;;;;;;3.90;3.50;;;;;;;;;;5098577;28;20471;-69
2023/08/22 03:56:06;;;;;;;4.30;3.90;;;;;;;;;;5099428;28;20463;-74
2023/08/22 03:58:33;;;;;;;4.80;3.10;;;;;;;;;;5099135;28;20451;-74
2023/08/22 04:01:01;;;;;;;3.33;3.00;;;;;;;;;;5099587;28;20466;-73
2023/08/22 04:03:28;;;;;;;3.30;2.80;;;;;;;;;;5089315;28;20455;-74
2023/08/22 04:05:54;;;;;;;3.37;3.07;;;;;;;;;;5099491;28;21200;-71
2023/08/22 04:08:20;;;;;;;6.23;3.97;;;;;;;;;;5099573;28;20558;-72
2023/08/22 04:10:47;;;;;;;4.93;3.63;;;;;;;;;;5101810;28;20489;-72
2023/08/22 04:13:15;;;;;;;4.53;3.00;;;;;;;;;;5099642;28;20451;-73
2023/08/22 04:15:41;;;;;;;7.93;4.67;;;;;;;;;;5103285;28;20514;-72
2023/08/22 04:18:07;;;;;;;6.10;3.13;;;;;;;;;;5103149;28;20459;-72
2023/08/22 04:20:34;;;;;;;6.87;3.60;;;;;;;;;;5102659;28;20549;-73
2023/08/22 04:23:00;;;;;;;4.80;3.70;;;;;;;;;;5100973;28;20489;-72
2023/08/22 04:25:27;;;;;;;4.43;3.47;;;;;;;;;;5099758;28;20483;-72
2023/08/22 04:27:53;;;;;;;7.50;3.67;;;;;;;;;;5094264;28;21107;-73
2023/08/22 04:30:21;;;;;;;4.40;3.27;;;;;;;;;;5101867;28;20961;-69
2023/08/22 04:32:47;;;;;;;6.20;3.50;;;;;;;;;;5101383;28;20482;-70
2023/08/22 04:35:14;;;;;;;6.30;4.37;;;;;;;;;;5103127;28;20475;-69
2023/08/22 04:37:40;;;;;;;10.83;3.50;;;;;;;;;;5101713;28;20678;-70
2023/08/22 04:40:07;;;;;;;3.73;3.13;;;;;;;;;;5101932;28;20451;-69
2023/08/22 04:42:34;;;;;;;5.60;3.70;;;;;;;;;;5100968;28;20955;-69
2023/08/22 04:45:00;;;;;;;6.63;3.33;;;;;;;;;;5101738;28;20565;-69
2023/08/22 04:47:28;;;;;;;10.70;4.03;;;;;;;;;;5101263;28;20531;-69
2023/08/22 04:49:55;;;;;;;6.37;3.80;;;;;;;;;;5101587;28;20871;-68
2023/08/22 04:52:21;;;;;;;3.67;3.30;;;;;;;;;;5100990;28;20534;-69
2023/08/22 04:54:47;;;;;;;9.53;3.77;;;;;;;;;;5101818;28;20491;-70
2023/08/22 04:57:14;;;;;;;3.93;3.53;;;;;;;;;;5105397;28;20522;-69
2023/08/22 04:59:40;;;;;;;5.10;3.90;;;;;;;;;;5100926;28;20508;-70
2023/08/22 05:02:07;;;;;;;3.70;3.40;;;;;;;;;;5100928;28;20505;-71
2023/08/22 05:04:34;;;;;;;7.63;3.00;;;;;;;;;;5101024;28;20479;-69
2023/08/22 05:07:01;;;;;;;3.47;3.10;;;;;;;;;;5113775;28;20963;-70
2023/08/22 05:09:27;;;;;;;4.80;3.20;;;;;;;;;;5101399;28;20455;-69
2023/08/22 05:11:54;;;;;;;4.03;2.97;;;;;;;;;;5100503;28;20463;-69
2023/08/22 05:14:21;;;;;;;6.83;3.67;;;;;;;;;;5100867;28;20549;-69
2023/08/22 05:16:47;;;;;;;4.20;3.80;;;;;;;;;;5104075;28;20455;-69
2023/08/22 05:19:14;;;;;;;5.27;3.60;;;;;;;;;;5097696;28;20545;-69
2023/08/22 05:21:42;;;;;;;5.20;3.33;;;;;;;;;;5094862;28;20458;-69
2023/08/22 05:24:08;;;;;;;8.23;4.47;;;;;;;;;;5100845;28;20586;-69
2023/08/22 05:26:35;;;;;;;4.00;3.60;;;;;;;;;;5104854;28;20442;-69
2023/08/22 05:29:02;;;;;;;5.43;3.83;;;;;;;;;;5101816;28;20511;-69
2023/08/22 05:31:28;;;;;;;7.53;3.63;;;;;;;;;;5097189;28;20452;-69
2023/08/22 05:33:54;;;;;;;5.00;3.70;;;;;;;;;;5100301;28;20530;-69
2023/08/22 05:36:21;;;;;;;6.10;3.73;;;;;;;;;;5103479;28;20909;-70
2023/08/22 05:38:49;;;;;;;7.23;3.90;;;;;;;;;;5101073;28;20966;-70
2023/08/22 05:41:16;;;;;;;3.83;3.20;;;;;;;;;;5104566;28;20454;-70
2023/08/22 05:43:43;;;;;;;5.20;3.30;;;;;;;;;;5100134;28;20573;-70
2023/08/22 05:46:09;;;;;;;8.87;4.30;;;;;;;;;;5099424;28;20522;-70
2023/08/22 05:48:35;;;;;;;11.23;4.00;;;;;;;;;;5100691;28;20462;-71
2023/08/22 05:51:02;;;;;;;7.60;4.40;;;;;;;;;;5100550;28;21088;-72
2023/08/22 05:53:29;;;;;;;5.90;4.20;;;;;;;;;;5098159;28;20665;-71
2023/08/22 05:55:57;;;;;;;5.30;3.67;;;;;;;;;;5099908;28;20486;-71
2023/08/22 05:58:24;;;;;;;4.40;4.00;;;;;;;;;;5100537;28;20452;-71
2023/08/22 06:00:50;;;;;;;6.33;4.00;;;;;;;;;;5109340;28;20550;-71
2023/08/22 06:03:18;;;;;;;7.17;3.73;;;;;;;;;;5100033;28;20478;-72
2023/08/22 06:05:44;;;;;;;7.40;4.07;;;;;;;;;;5100501;28;20520;-72
2023/08/22 06:08:11;;;;;;;6.70;4.00;;;;;;;;;;5099634;28;20467;-70
2023/08/22 06:10:37;;;;;;;8.90;3.80;;;;;;;;;;5104802;28;20558;-71
2023/08/22 06:13:05;;;;;;;11.20;5.00;;;;;;;;;;5099917;28;20466;-67
2023/08/22 06:15:31;;;;;;;8.50;4.43;;;;;;;;;;5100147;28;20475;-67
2023/08/22 06:17:58;;;;;;;9.53;4.90;;;;;;;;;;5093710;28;21394;-67
2023/08/22 06:20:24;;;;;;;15.80;5.03;;;;;;;;;;5101889;28;20514;-67
2023/08/22 06:22:51;;;;;;;6.70;5.83;;;;;;;;;;5098876;28;20516;-67
2023/08/22 06:25:17;;;;;;;8.27;4.77;;;;;;;;;;5100238;28;20535;-67
2023/08/22 06:27:44;;;;;;;9.27;5.90;;;;;;;;;;5099944;28;20510;-67
2023/08/22 06:30:12;;;;;;;6.77;4.93;;;;;;;;;;5098952;28;20518;-67
2023/08/22 06:32:38;;;;;;;6.23;5.60;;;;;;;;;;5099472;28;20443;-67
2023/08/22 06:35:05;;;;;;;6.10;5.60;;;;;;;;;;5099789;28;20478;-67
2023/08/22 06:37:31;;;;;;;8.87;6.50;;;;;;;;;;5099329;28;20486;-67
2023/08/22 06:39:58;;;;;;;7.87;5.97;;;;;;;;;;5099708;28;20530;-68
2023/08/22 06:42:24;;;;;;;8.03;5.00;;;;;;;;;;5099053;28;20511;-68
2023/08/22 06:44:50;;;;;;;13.00;5.57;;;;;;;;;;5106354;28;20573;-68
2023/08/22 06:47:18;;;;;;;9.00;5.70;;;;;;;;;;5098310;28;20558;-68
2023/08/22 06:49:45;;;;;;;8.90;5.47;;;;;;;;;;5096167;28;20461;-68
2023/08/22 06:52:11;;;;;;;6.93;6.03;;;;;;;;;;5098769;28;20454;-68
2023/08/22 06:54:38;;;;;;;9.83;5.90;;;;;;;;;;5099552;28;20455;-68
2023/08/22 06:57:04;;;;;;;7.03;5.03;;;;;;;;;;5099735;28;21027;-68
2023/08/22 06:59:30;;;;;;;9.10;6.07;;;;;;;;;;5100776;28;20530;-68
2023/08/22 07:01:58;;;;;;;7.77;5.57;;;;;;;;;;5099055;28;20462;-69
2023/08/22 07:04:25;;;;;;;6.23;4.90;;;;;;;;;;5098926;28;20459;-68
2023/08/22 07:06:52;;;;;;;6.00;4.57;;;;;;;;;;5102501;28;20486;-69
2023/08/22 07:09:18;;;;;;;7.10;5.13;;;;;;;;;;5099323;28;20535;-69
2023/08/22 07:11:45;;;;;;;5.30;4.80;;;;;;;;;;5097948;28;20478;-68
2023/08/22 07:14:11;;;;;;;5.70;4.87;;;;;;;;;;5097660;28;20554;-68
2023/08/22 07:16:37;;;;;;;7.00;4.97;;;;;;;;;;5098173;28;20487;-69
2023/08/22 07:19:04;;;;;;;9.10;4.90;;;;;;;;;;5099111;28;20481;-69
2023/08/22 07:21:32;;;;;;;8.97;5.00;;;;;;;;;;5103804;28;20447;-69
2023/08/22 07:23:58;;;;;;;5.73;4.83;;;;;;;;;;5099957;28;20551;-69
2023/08/22 07:26:25;;;;;;;7.20;5.00;;;;;;;;;;5098560;28;20600;-69
2023/08/22 07:28:51;;;;;;;9.57;5.07;;;;;;;;;;5097972;28;20475;-69
2023/08/22 07:31:18;;;;;;;6.77;4.87;;;;;;;;;;5098171;28;20491;-68
2023/08/22 07:33:44;;;;;;;7.70;4.97;;;;;;;;;;5098848;28;20475;-68
2023/08/22 07:36:17;;;;;;;5.77;4.53;;;;;;;;;;5097903;28;20816;-68
2023/08/22 07:38:44;;;;;;;7.13;4.90;;;;;;;;;;5098092;28;20455;-69
2023/08/22 07:41:11;;;;;;;6.30;4.17;;;;;;;;;;5099040;28;20524;-68
2023/08/22 07:43:37;;;;;;;6.83;4.20;;;;;;;;;;5095613;28;20479;-69
2023/08/22 07:46:04;;;;;;;8.03;4.73;;;;;;;;;;5096449;28;21064;-69
2023/08/22 07:48:30;;;;;;;5.60;3.97;;;;;;;;;;5106012;28;20562;-68
2023/08/22 07:50:57;;;;;;;8.20;4.37;;;;;;;;;;5103289;28;20470;-68
2023/08/22 07:53:23;;;;;;;5.30;4.30;;;;;;;;;;5103398;28;20534;-68
2023/08/22 07:55:51;;;;;;;6.43;4.20;;;;;;;;;;5099061;28;20547;-68
2023/08/22 07:58:17;;;;;;;7.33;4.47;;;;;;;;;;5097728;28;20558;-68
2023/08/22 08:00:47;;;;;;;9.93;4.50;;;;;;;;;;5097376;28;20454;-68
2023/08/22 08:03:13;;;;;;;5.73;4.07;;;;;;;;;;5097402;28;20518;-68
2023/08/22 08:05:39;;;;;;;4.67;4.07;;;;;;;;;;5097934;28;20527;-68
2023/08/22 08:08:05;;;;;;;4.93;3.80;;;;;;;;;;5098371;28;20475;-68
2023/08/22 08:10:34;;;;;;;5.57;3.90;;;;;;;;;;5105373;28;20231;-68
2023/08/22 08:13:02;;;;;;;4.50;4.10;;;;;;;;;;5101583;28;20569;-68
2023/08/22 08:15:28;;;;;;;4.17;3.87;;;;;;;;;;5101149;28;20442;-68
2023/08/22 08:17:55;;;;;;;3.80;3.40;;;;;;;;;;5106289;28;20469;-68
2023/08/22 08:20:22;;;;;;;6.23;3.47;;;;;;;;;;5098495;28;20463;-68
2023/08/22 08:22:48;;;;;;;4.07;3.70;;;;;;;;;;5098168;28;20455;-68
2023/08/22 08:25:14;;;;;;;5.33;3.93;;;;;;;;;;5097610;28;20520;-68
2023/08/22 08:27:41;;;;;;;4.60;3.47;;;;;;;;;;5097383;28;20537;-68
2023/08/22 08:30:10;;;;;;;4.30;3.90;;;;;;;;;;5098997;28;20947;-68
2023/08/22 08:32:36;;;;;;;3.80;3.40;;;;;;;;;;5097417;28;20467;-68
2023/08/22 08:35:04;;;;;;;4.93;3.83;;;;;;;;;;5097745;28;20538;-68
2023/08/22 08:37:31;;;;;;;4.33;3.60;;;;;;;;;;5103652;28;20484;-67
2023/08/22 08:39:57;;;;;;;5.70;3.70;;;;;;;;;;5098052;28;20511;-68
2023/08/22 08:42:24;;;;;;;6.13;3.83;;;;;;;;;;5091318;28;20531;-68
2023/08/22 08:44:50;;;;;;;5.03;3.80;;;;;;;;;;5097834;28;20444;-68
2023/08/22 08:47:18;;;;;;;5.33;4.10;;;;;;;;;;5097758;28;20491;-68
2023/08/22 08:49:45;;;;;;;5.70;4.10;;;;;;;;;;5096660;28;20781;-68
2023/08/22 08:52:12;;;;;;;7.90;4.00;;;;;;;;;;5097439;28;20450;-68
2023/08/22 08:54:39;;;;;;;5.60;4.50;;;;;;;;;;5098058;28;20469;-68
2023/08/22 08:57:06;;;;;;;6.13;4.17;;;;;;;;;;5104977;28;20446;-68
2023/08/22 08:59:32;;;;;;;7.37;3.90;;;;;;;;;;5101942;28;20478;-68
2023/08/22 09:01:59;;;;;;;6.20;4.93;;;;;;;;;;5099995;28;20483;-68
2023/08/22 09:04:27;;;;;;;5.40;3.80;;;;;;;;;;5100248;28;20455;-68
2023/08/22 09:06:53;;;;;;;5.07;4.50;;;;;;;;;;5095561;28;20502;-68
2023/08/22 09:09:20;;;;;;;4.60;3.67;;;;;;;;;;5101594;28;20541;-67
2023/08/22 09:11:48;;;;;;;5.40;3.83;;;;;;;;;;5100800;28;20714;-68
2023/08/22 09:14:18;;;;;;;4.93;4.00;;;;;;;;;;5100278;28;20809;-68
2023/08/22 09:16:45;;;;;;;5.90;4.27;;;;;;;;;;5099506;28;20539;-68
2023/08/22 09:19:11;;;;;;;4.70;3.80;;;;;;;;;;5100293;28;20478;-68
2023/08/22 09:21:39;;;;;;;7.00;4.30;;;;;;;;;;5101700;28;20486;-68
2023/08/22 09:24:08;;;;;;;5.60;4.10;;;;;;;;;;5101085;28;20443;-68
2023/08/22 09:26:34;;;;;;;6.57;4.33;;;;;;;;;;5106624;28;20485;-68
2023/08/22 09:29:04;;;;;;;7.80;4.73;;;;;;;;;;5100827;28;20512;-68
2023/08/22 09:31:30;;;;;;;4.97;3.90;;;;;;;;;;5100919;28;20459;-68
2023/08/22 09:33:57;;;;;;;5.20;4.70;;;;;;;;;;5100043;28;20537;-68
2023/08/22 09:36:23;;;;;;;7.17;4.20;;;;;;;;;;5101298;28;20445;-68
2023/08/22 09:38:52;;;;;;;3.90;3.57;;;;;;;;;;5100616;28;20483;-68
2023/08/22 09:41:21;;;;;;;5.40;3.87;;;;;;;;;;5101668;28;20459;-68
2023/08/22 09:43:49;;;;;;;6.70;3.60;;;;;;;;;;5099954;28;20459;-68
2023/08/22 09:46:16;;;;;;;4.63;4.00;;;;;;;;;;5100061;28;20514;-68
2023/08/22 09:48:43;;;;;;;6.50;3.70;;;;;;;;;;5100333;28;20452;-68
2023/08/22 09:51:10;;;;;;;4.20;3.90;;;;;;;;;;5099737;28;20443;-69
2023/08/22 09:53:37;;;;;;;4.03;3.63;;;;;;;;;;5103389;28;20483;-69
2023/08/22 09:56:05;;;;;;;4.67;3.60;;;;;;;;;;5100136;28;20495;-69
2023/08/22 09:58:32;;;;;;;4.50;3.90;;;;;;;;;;5100679;28;20443;-69
2023/08/22 10:01:00;;;;;;;7.50;4.00;;;;;;;;;;5090930;28;20453;-69
2023/08/22 10:03:27;;;;;;;4.70;3.90;;;;;;;;;;5096291;28;20463;-68
2023/08/22 10:05:54;;;;;;;6.20;3.60;;;;;;;;;;5101204;28;20483;-68
2023/08/22 10:08:20;;;;;;;5.07;3.57;;;;;;;;;;5100317;28;20443;-68
2023/08/22 10:10:48;;;;;;;6.73;4.00;;;;;;;;;;5088099;28;20530;-68
2023/08/22 10:13:16;;;;;;;4.73;3.70;;;;;;;;;;5099893;28;20443;-68
2023/08/22 10:15:44;;;;;;;5.17;3.50;;;;;;;;;;5089491;28;20924;-68
2023/08/22 10:18:11;;;;;;;4.63;3.40;;;;;;;;;;5095165;28;20863;-68
2023/08/22 10:20:38;;;;;;;10.00;4.30;;;;;;;;;;5105914;28;20483;-68
2023/08/22 10:23:04;;;;;;;9.83;4.37;;;;;;;;;;5099642;28;20932;-68
2023/08/22 10:25:47;;;;;;;6.87;4.70;;;;;;;;;;5099547;28;20459;-68
2023/08/22 10:28:13;;;;;;;4.97;3.70;;;;;;;;;;5093064;28;20573;-68
2023/08/22 10:30:54;;;;;;;5.27;4.13;;;;;;;;;;5100181;28;20800;-68
2023/08/22 10:33:28;;;;;;;4.50;4.10;;;;;;;;;;5098560;28;20502;-68
2023/08/22 10:36:04;;;;;;;5.87;3.80;;;;;;;;;;5097703;28;20473;-68
2023/08/22 10:38:46;;;;;;;4.03;3.53;;;;;;;;;;5099640;28;20522;-68
2023/08/22 10:41:13;;;;;;;7.77;3.93;;;;;;;;;;5095589;28;20506;-69
2023/08/22 10:43:40;;;;;;;4.60;4.20;;;;;;;;;;5101341;28;20483;-68
2023/08/22 10:46:06;;;;;;;4.47;3.43;;;;;;;;;;5103930;28;20549;-68
2023/08/22 10:48:34;;;;;;;5.80;3.90;;;;;;;;;;5098598;28;20477;-68
2023/08/22 10:51:05;;;;;;;5.40;4.50;;;;;;;;;;5102572;28;20496;-68
2023/08/22 10:53:41;;;;;;;4.23;3.73;;;;;;;;;;5101326;28;20455;-68
2023/08/22 10:56:17;;;;;;;5.00;3.60;;;;;;;;;;5098632;28;20448;-68
2023/08/22 10:58:43;;;;;;;4.30;3.83;;;;;;;;;;5098952;28;20850;-68
2023/08/22 11:01:13;;;;;;;4.37;3.93;;;;;;;;;;5099153;28;20470;-68
2023/08/22 11:03:42;;;;;;;5.27;3.77;;;;;;;;;;5098385;28;20447;-68
2023/08/22 11:06:12;;;;;;;3.70;3.30;;;;;;;;;;5098561;28;20475;-68
2023/08/22 11:08:39;;;;;;;6.00;3.67;;;;;;;;;;5098511;28;20444;-68
2023/08/22 11:11:05;;;;;;;5.47;3.70;;;;;;;;;;5098629;28;20496;-68
2023/08/22 11:13:36;;;;;;;4.37;3.80;;;;;;;;;;5098163;28;20451;-68
2023/08/22 11:16:02;;;;;;;4.10;3.70;;;;;;;;;;5098347;28;20457;-68
2023/08/22 11:18:29;;;;;;;5.20;4.00;;;;;;;;;;5097685;28;20523;-69
2023/08/22 11:20:56;;;;;;;3.90;3.57;;;;;;;;;;5098032;28;20482;-68
2023/08/22 11:23:23;;;;;;;4.27;3.63;;;;;;;;;;5097712;28;20530;-68
2023/08/22 11:25:49;;;;;;;6.20;3.80;;;;;;;;;;5098433;28;20451;-68
2023/08/22 11:28:16;;;;;;;4.00;3.60;;;;;;;;;;5099756;28;20508;-68
2023/08/22 11:30:42;;;;;;;5.73;4.43;;;;;;;;;;5099232;28;20519;-68
2023/08/22 11:33:09;;;;;;;4.47;3.97;;;;;;;;;;5097715;28;20971;-69
2023/08/22 11:35:35;;;;;;;4.67;4.20;;;;;;;;;;5098890;28;20531;-68
2023/08/22 11:38:03;;;;;;;4.03;3.63;;;;;;;;;;5099054;28;20482;-68
2023/08/22 11:40:29;;;;;;;6.67;3.90;;;;;;;;;;5098053;28;20450;-68
2023/08/22 11:42:58;;;;;;;4.30;3.90;;;;;;;;;;5098023;28;20447;-68
2023/08/22 11:45:25;;;;;;;4.97;4.00;;;;;;;;;;5101208;28;20459;-68
2023/08/22 11:47:52;;;;;;;4.93;3.90;;;;;;;;;;5097864;28;20871;-68
2023/08/22 11:50:19;;;;;;;5.40;4.40;;;;;;;;;;5098761;28;20463;-68
2023/08/22 11:52:46;;;;;;;6.87;3.87;;;;;;;;;;5099076;28;20459;-68
2023/08/22 11:55:16;;;;;;;4.37;3.97;;;;;;;;;;5096230;28;20505;-68
2023/08/22 11:57:43;;;;;;;4.40;4.00;;;;;;;;;;5098628;28;20439;-69
2023/08/22 12:00:11;;;;;;;5.37;4.30;;;;;;;;;;5098495;28;20533;-68
2023/08/22 12:02:37;;;;;;;4.63;4.23;;;;;;;;;;5097656;28;20451;-68
2023/08/22 12:05:04;;;;;;;6.33;4.00;;;;;;;;;;5098457;28;20474;-68
2023/08/22 12:07:41;;;;;;;9.17;4.83;;;;;;;;;;5102770;28;20490;-68
2023/08/22 12:10:12;;;;;;;4.80;4.30;;;;;;;;;;5104071;28;20474;-69
2023/08/22 12:12:39;;;;;;;6.93;3.93;;;;;;;;;;5097864;28;20476;-69
2023/08/22 12:15:06;;;;;;;8.00;4.00;;;;;;;;;;5098544;28;20470;-69
2023/08/22 12:17:33;;;;;;;3.83;3.40;;;;;;;;;;5096148;28;20479;-68
2023/08/22 12:19:59;;;;;;;5.80;3.80;;;;;;;;;;5097916;28;20482;-68
2023/08/22 12:22:26;;;;;;;4.77;4.10;;;;;;;;;;5097952;28;21007;-68
2023/08/22 12:24:52;;;;;;;5.57;4.20;;;;;;;;;;5100114;28;20543;-68
2023/08/22 12:27:18;;;;;;;5.37;4.13;;;;;;;;;;5098287;28;20510;-68
2023/08/22 12:29:46;;;;;;;4.20;3.90;;;;;;;;;;5098207;28;20486;-68
2023/08/22 12:32:13;;;;;;;6.93;4.23;;;;;;;;;;5097081;28;20493;-69
2023/08/22 12:34:39;;;;;;;5.40;4.20;;;;;;;;;;5104535;28;20450;-69
2023/08/22 12:37:06;;;;;;;6.83;4.10;;;;;;;;;;5115026;28;20543;-68
2023/08/22 12:39:32;;;;;;;4.83;3.90;;;;;;;;;;5101280;28;20537;-69
2023/08/22 12:41:58;;;;;;;7.87;3.97;;;;;;;;;;5104500;28;20811;-68
2023/08/22 12:44:25;;;;;;;4.97;4.47;;;;;;;;;;5105444;28;20640;-68
2023/08/22 12:46:54;;;;;;;3.53;3.23;;;;;;;;;;5104780;28;20573;-69
2023/08/22 12:49:20;;;;;;;5.90;3.90;;;;;;;;;;5101840;28;20909;-69
2023/08/22 12:51:47;;;;;;;5.80;3.53;;;;;;;;;;5098566;28;20489;-69
2023/08/22 12:54:13;;;;;;;9.60;3.80;;;;;;;;;;5100817;28;20898;-69
2023/08/22 12:56:40;;;;;;;3.50;3.20;;;;;;;;;;5104601;28;20620;-68
2023/08/22 12:59:06;;;;;;;5.57;3.30;;;;;;;;;;5106005;28;20982;-68
2023/08/22 13:01:34;;;;;;;4.90;3.73;;;;;;;;;;5102503;28;20475;-68
2023/08/22 13:04:10;;;;;;;8.90;3.67;;;;;;;;;;5103291;28;20769;-68
2023/08/22 13:06:36;;;;;;;6.50;3.87;;;;;;;;;;5101095;28;20530;-68
2023/08/22 13:09:03;;;;;;;6.03;3.50;;;;;;;;;;5100166;28;20474;-68
2023/08/22 13:11:29;;;;;;;9.40;4.43;;;;;;;;;;5101084;28;20451;-68
2023/08/22 13:13:56;;;;;;;5.07;3.30;;;;;;;;;;5100307;28;20459;-68
2023/08/22 13:16:22;;;;;;;6.13;4.20;;;;;;;;;;5094923;28;20484;-68
2023/08/22 13:18:48;;;;;;;6.17;3.40;;;;;;;;;;5100483;28;20884;-68
2023/08/22 13:21:16;;;;;;;4.13;3.70;;;;;;;;;;5106639;28;20522;-68
2023/08/22 13:23:42;;;;;;;8.87;4.43;;;;;;;;;;5104644;28;20455;-68
2023/08/22 13:26:09;;;;;;;4.20;3.40;;;;;;;;;;5100743;28;20450;-68
2023/08/22 13:28:35;;;;;;;6.03;3.60;;;;;;;;;;5100529;28;20474;-68
2023/08/22 13:31:02;;;;;;;6.53;4.17;;;;;;;;;;5102250;28;20509;-68
2023/08/22 13:33:28;;;;;;;4.30;3.90;;;;;;;;;;5101575;28;20482;-68
2023/08/22 13:35:54;;;;;;;3.93;3.60;;;;;;;;;;5100159;28;20477;-68
2023/08/22 13:38:22;;;;;;;5.77;4.20;;;;;;;;;;5099785;28;20518;-68
2023/08/22 13:40:49;;;;;;;4.33;3.73;;;;;;;;;;5101327;28;20483;-68
2023/08/22 13:43:15;;;;;;;4.00;3.70;;;;;;;;;;5100233;28;20443;-68
2023/08/22 13:45:41;;;;;;;5.07;3.73;;;;;;;;;;5099617;28;20522;-68
2023/08/22 13:48:08;;;;;;;5.50;4.20;;;;;;;;;;5099729;28;20598;-68
2023/08/22 13:50:34;;;;;;;4.17;3.77;;;;;;;;;;5100870;28;20488;-68
2023/08/22 13:53:01;;;;;;;5.20;3.87;;;;;;;;;;5100085;28;20475;-68
2023/08/22 13:55:28;;;;;;;4.53;3.70;;;;;;;;;;5100645;28;20706;-68
2023/08/22 13:57:56;;;;;;;4.90;3.53;;;;;;;;;;5101050;28;20479;-68
2023/08/22 14:00:23;;;;;;;4.80;3.50;;;;;;;;;;5097008;28;20507;-68
2023/08/22 14:02:49;;;;;;;4.60;4.20;;;;;;;;;;5105396;28;20463;-68
2023/08/22 14:05:15;;;;;;;5.53;4.30;;;;;;;;;;5105167;28;20494;-68
2023/08/22 14:07:42;;;;;;;5.00;4.07;;;;;;;;;;5099857;28;20489;-68
2023/08/22 14:10:09;;;;;;;5.97;4.07;;;;;;;;;;5101425;28;20481;-68
2023/08/22 14:12:37;;;;;;;4.63;4.00;;;;;;;;;;5102485;28;20447;-68
2023/08/22 14:15:04;;;;;;;5.00;4.03;;;;;;;;;;5099796;28;20463;-68
2023/08/22 14:17:30;;;;;;;6.70;4.23;;;;;;;;;;5102828;28;20533;-67
2023/08/22 14:19:57;;;;;;;5.97;3.77;;;;;;;;;;5103408;28;20543;-67
2023/08/22 14:22:23;;;;;;;4.60;3.70;;;;;;;;;;5104285;28;20481;-68
2023/08/22 14:24:49;;;;;;;3.80;3.50;;;;;;;;;;5103882;28;20475;-68
2023/08/22 14:27:16;;;;;;;5.50;3.87;;;;;;;;;;5105189;28;20471;-68
2023/08/22 14:29:44;;;;;;;4.57;3.70;;;;;;;;;;5100376;28;20474;-68
2023/08/22 14:32:10;;;;;;;5.47;4.40;;;;;;;;;;5102440;28;20500;-68
2023/08/22 14:34:37;;;;;;;6.03;3.60;;;;;;;;;;5102067;28;20455;-68
2023/08/22 14:37:03;;;;;;;4.30;3.90;;;;;;;;;;5096091;28;20993;-69
2023/08/22 14:39:29;;;;;;;5.10;3.37;;;;;;;;;;5099473;28;20451;-68
2023/08/22 14:41:56;;;;;;;4.27;3.70;;;;;;;;;;5099214;28;20455;-68